sensor_id;sensor_type;location;lat;lon;timestamp;pressure;altitude;pressure_sealevel;temperature;humidity
15634;BME280;14654;48.898;8.308;2023-02-18T00:02:05;101262.81;;;11.70;100.00
15634;BME280;14654;48.898;8.308;2023-02-18T00:04:31;101267.97;;;11.68;100.00
15634;BME280;14654;48.898;8.308;2023-02-18T00:06:56;101267.97;;;11.68;100.00
15634;BME280;14654;48.898;8.308;2023-02-18T00:09:22;101271.44;;;11.70;100.00
15634;BME280;14654;48.898;8.308;2023-02-18T00:11:47;101268.88;;;11.69;100.00
15634;BME280;14654;48.898;8.308;2023-02-18T00:14:14;101274.91;;;11.71;100.00
15634;BME280;14654;48.898;8.308;2023-02-18T00:16:40;101273.19;;;11.71;100.00
15634;BME280;14654;48.898;8.308;2023-02-18T00:19:09;101279.25;;;11.72;100.00
15634;BME280;14654;48.898;8.308;2023-02-18T00:21:35;101273.19;;;11.71;100.00
15634;BME280;14654;48.898;8.308;2023-02-18T00:24:02;101267.13;;;11.72;100.00
15634;BME280;14654;48.898;8.308;2023-02-18T00:26:28;101257.63;;;11.71;100.00
15634;BME280;14654;48.898;8.308;2023-02-18T00:28:53;101262.81;;;11.73;100.00
15634;BME280;14654;48.898;8.308;2023-02-18T00:31:22;101272.31;;;11.72;100.00
15634;BME280;14654;48.898;8.308;2023-02-18T00:33:47;101270.59;;;11.71;100.00
15634;BME280;14654;48.898;8.308;2023-02-18T00:36:15;101261.97;;;11.71;100.00
15634;BME280;14654;48.898;8.308;2023-02-18T00:38:48;101264.53;;;11.72;100.00
15634;BME280;14654;48.898;8.308;2023-02-18T00:41:15;101261.09;;;11.72;100.00
15634;BME280;14654;48.898;8.308;2023-02-18T00:43:41;101261.09;;;11.72;100.00
15634;BME280;14654;48.898;8.308;2023-02-18T00:46:06;101259.34;;;11.77;100.00
15634;BME280;14654;48.898;8.308;2023-02-18T00:48:32;101255.03;;;11.74;100.00
15634;BME280;14654;48.898;8.308;2023-02-18T00:50:58;101255.91;;;11.72;100.00
15634;BME280;14654;48.898;8.308;2023-02-18T00:53:25;101254.16;;;11.69;100.00
15634;BME280;14654;48.898;8.308;2023-02-18T00:55:51;101256.75;;;11.69;100.00
15634;BME280;14654;48.898;8.308;2023-02-18T00:58:16;101251.59;;;11.71;100.00
15634;BME280;14654;48.898;8.308;2023-02-18T01:00:42;101244.66;;;11.70;100.00
15634;BME280;14654;48.898;8.308;2023-02-18T01:03:08;101249.84;;;11.70;100.00
15634;BME280;14654;48.898;8.308;2023-02-18T01:05:33;101253.28;;;11.70;100.00
15634;BME280;14654;48.898;8.308;2023-02-18T01:07:58;101255.88;;;11.70;100.00
15634;BME280;14654;48.898;8.308;2023-02-18T01:10:24;101252.44;;;11.70;100.00
15634;BME280;14654;48.898;8.308;2023-02-18T01:12:49;101249.84;;;11.71;100.00
15634;BME280;14654;48.898;8.308;2023-02-18T01:15:15;101260.22;;;11.71;100.00
15634;BME280;14654;48.898;8.308;2023-02-18T01:17:40;101247.25;;;11.74;100.00
15634;BME280;14654;48.898;8.308;2023-02-18T01:20:06;101247.25;;;11.73;100.00
15634;BME280;14654;48.898;8.308;2023-02-18T01:22:32;101232.56;;;11.72;100.00
15634;BME280;14654;48.898;8.308;2023-02-18T01:24:57;101247.25;;;11.73;100.00
15634;BME280;14654;48.898;8.308;2023-02-18T01:27:22;101245.53;;;11.72;100.00
15634;BME280;14654;48.898;8.308;2023-02-18T01:29:49;101243.81;;;11.71;100.00
15634;BME280;14654;48.898;8.308;2023-02-18T01:32:14;101250.69;;;11.70;100.00
15634;BME280;14654;48.898;8.308;2023-02-18T01:34:39;101251.59;;;11.71;100.00
15634;BME280;14654;48.898;8.308;2023-02-18T01:37:05;101253.28;;;11.70;100.00
15634;BME280;14654;48.898;8.308;2023-02-18T01:39:30;101241.19;;;11.69;100.00
15634;BME280;14654;48.898;8.308;2023-02-18T01:41:56;101241.19;;;11.68;100.00
15634;BME280;14654;48.898;8.308;2023-02-18T01:44:25;101242.06;;;11.67;100.00
15634;BME280;14654;48.898;8.308;2023-02-18T01:46:51;101240.31;;;11.66;100.00
15634;BME280;14654;48.898;8.308;2023-02-18T01:49:26;101229.94;;;11.67;100.00
15634;BME280;14654;48.898;8.308;2023-02-18T01:52:01;101234.28;;;11.67;100.00
15634;BME280;14654;48.898;8.308;2023-02-18T01:57:05;101233.41;;;11.65;100.00
15634;BME280;14654;48.898;8.308;2023-02-18T02:02:14;101229.09;;;11.62;100.00
15634;BME280;14654;48.898;8.308;2023-02-18T02:04:41;101233.41;;;11.62;100.00
15634;BME280;14654;48.898;8.308;2023-02-18T02:07:07;101242.03;;;11.61;100.00
15634;BME280;14654;48.898;8.308;2023-02-18T02:09:33;101242.03;;;11.61;100.00
15634;BME280;14654;48.898;8.308;2023-02-18T02:42:51;101230.78;;;11.51;100.00
15634;BME280;14654;48.898;8.308;2023-02-18T02:45:42;101228.19;;;11.49;100.00
15634;BME280;14654;48.898;8.308;2023-02-18T02:53:12;101209.19;;;11.50;100.00
15634;BME280;14654;48.898;8.308;2023-02-18T02:55:39;101200.56;;;11.47;100.00
15634;BME280;14654;48.898;8.308;2023-02-18T02:58:05;101199.69;;;11.48;100.00
15634;BME280;14654;48.898;8.308;2023-02-18T03:06:14;101181.53;;;11.46;100.00
15634;BME280;14654;48.898;8.308;2023-02-18T03:08:51;101178.06;;;11.44;100.00
15634;BME280;14654;48.898;8.308;2023-02-18T03:11:18;101189.28;;;11.46;100.00
15634;BME280;14654;48.898;8.308;2023-02-18T03:13:55;101173.75;;;11.44;100.00
15634;BME280;14654;48.898;8.308;2023-02-18T03:21:57;101162.50;;;11.44;100.00
15634;BME280;14654;48.898;8.308;2023-02-18T03:24:41;101150.41;;;11.43;100.00
15634;BME280;14654;48.898;8.308;2023-02-18T03:27:18;101153.00;;;11.43;100.00
15634;BME280;14654;48.898;8.308;2023-02-18T03:29:48;101145.22;;;11.41;100.00
15634;BME280;14654;48.898;8.308;2023-02-18T03:32:17;101152.16;;;11.41;100.00
15634;BME280;14654;48.898;8.308;2023-02-18T03:34:48;101146.97;;;11.41;100.00
15634;BME280;14654;48.898;8.308;2023-02-18T03:37:14;101151.28;;;11.42;100.00
15634;BME280;14654;48.898;8.308;2023-02-18T03:39:44;101146.09;;;11.42;100.00
15634;BME280;14654;48.898;8.308;2023-02-18T03:42:10;101136.59;;;11.39;100.00
15634;BME280;14654;48.898;8.308;2023-02-18T03:44:35;101144.38;;;11.41;100.00
15634;BME280;14654;48.898;8.308;2023-02-18T03:47:01;101141.78;;;11.41;100.00
15634;BME280;14654;48.898;8.308;2023-02-18T03:49:26;101137.47;;;11.41;100.00
15634;BME280;14654;48.898;8.308;2023-02-18T03:51:52;101136.59;;;11.42;100.00
15634;BME280;14654;48.898;8.308;2023-02-18T03:54:17;101139.19;;;11.41;100.00
15634;BME280;14654;48.898;8.308;2023-02-18T03:56:43;101140.06;;;11.40;100.00
15634;BME280;14654;48.898;8.308;2023-02-18T03:59:09;101137.44;;;11.38;100.00
15634;BME280;14654;48.898;8.308;2023-02-18T04:01:35;101144.38;;;11.35;100.00
15634;BME280;14654;48.898;8.308;2023-02-18T04:04:00;101140.06;;;11.37;100.00
15634;BME280;14654;48.898;8.308;2023-02-18T04:06:27;101138.34;;;11.34;100.00
15634;BME280;14654;48.898;8.308;2023-02-18T04:08:52;101130.56;;;11.34;100.00
15634;BME280;14654;48.898;8.308;2023-02-18T04:11:17;101127.94;;;11.33;100.00
15634;BME280;14654;48.898;8.308;2023-02-18T04:13:43;101118.44;;;11.32;100.00
15634;BME280;14654;48.898;8.308;2023-02-18T04:16:08;101133.13;;;11.33;100.00
15634;BME280;14654;48.898;8.308;2023-02-18T04:18:33;101136.56;;;11.32;100.00
15634;BME280;14654;48.898;8.308;2023-02-18T04:20:59;101127.09;;;11.32;100.00
15634;BME280;14654;48.898;8.308;2023-02-18T04:23:24;101126.22;;;11.32;100.00
15634;BME280;14654;48.898;8.308;2023-02-18T04:25:50;101136.59;;;11.30;100.00
15634;BME280;14654;48.898;8.308;2023-02-18T04:28:16;101139.16;;;11.28;100.00
15634;BME280;14654;48.898;8.308;2023-02-18T04:30:42;101138.28;;;11.29;100.00
15634;BME280;14654;48.898;8.308;2023-02-18T04:33:08;101132.25;;;11.31;100.00
15634;BME280;14654;48.898;8.308;2023-02-18T04:35:33;101132.25;;;11.27;100.00
15634;BME280;14654;48.898;8.308;2023-02-18T04:37:59;101146.94;;;11.28;100.00
15634;BME280;14654;48.898;8.308;2023-02-18T04:40:25;101137.44;;;11.27;100.00
15634;BME280;14654;48.898;8.308;2023-02-18T04:42:53;101135.72;;;11.29;100.00
15634;BME280;14654;48.898;8.308;2023-02-18T04:45:19;101132.25;;;11.26;100.00
15634;BME280;14654;48.898;8.308;2023-02-18T04:47:44;101131.38;;;11.28;100.00
15634;BME280;14654;48.898;8.308;2023-02-18T04:50:09;101118.44;;;11.27;100.00
15634;BME280;14654;48.898;8.308;2023-02-18T04:52:35;101118.44;;;11.25;100.00
15634;BME280;14654;48.898;8.308;2023-02-18T04:55:00;101115.84;;;11.25;100.00
15634;BME280;14654;48.898;8.308;2023-02-18T04:57:25;101109.78;;;11.25;100.00
15634;BME280;14654;48.898;8.308;2023-02-18T04:59:51;101112.38;;;11.29;100.00
15634;BME280;14654;48.898;8.308;2023-02-18T05:02:16;101109.81;;;11.26;100.00
15634;BME280;14654;48.898;8.308;2023-02-18T05:04:41;101115.84;;;11.27;100.00
15634;BME280;14654;48.898;8.308;2023-02-18T05:07:07;101112.38;;;11.25;100.00
15634;BME280;14654;48.898;8.308;2023-02-18T05:09:32;101120.19;;;11.26;100.00
15634;BME280;14654;48.898;8.308;2023-02-18T05:11:57;101117.59;;;11.26;100.00
15634;BME280;14654;48.898;8.308;2023-02-18T05:14:23;101116.72;;;11.24;100.00
15634;BME280;14654;48.898;8.308;2023-02-18T05:16:48;101121.91;;;11.24;100.00
15634;BME280;14654;48.898;8.308;2023-02-18T05:19:14;101117.56;;;11.25;100.00
15634;BME280;14654;48.898;8.308;2023-02-18T05:21:39;101117.56;;;11.23;100.00
15634;BME280;14654;48.898;8.308;2023-02-18T05:24:05;101111.53;;;11.21;100.00
15634;BME280;14654;48.898;8.308;2023-02-18T05:26:30;101100.28;;;11.21;100.00
15634;BME280;14654;48.898;8.308;2023-02-18T05:28:55;101087.34;;;11.18;100.00
15634;BME280;14654;48.898;8.308;2023-02-18T05:31:21;101092.50;;;11.15;100.00
15634;BME280;14654;48.898;8.308;2023-02-18T05:33:46;101088.19;;;11.15;100.00
15634;BME280;14654;48.898;8.308;2023-02-18T05:36:12;101088.19;;;11.13;100.00
15634;BME280;14654;48.898;8.308;2023-02-18T05:38:37;101091.63;;;11.14;100.00
15634;BME280;14654;48.898;8.308;2023-02-18T05:41:02;101080.41;;;11.15;100.00
15634;BME280;14654;48.898;8.308;2023-02-18T05:43:28;101088.19;;;11.13;100.00
15634;BME280;14654;48.898;8.308;2023-02-18T05:45:53;101087.34;;;11.18;100.00
15634;BME280;14654;48.898;8.308;2023-02-18T05:48:18;101083.91;;;11.19;100.00
15634;BME280;14654;48.898;8.308;2023-02-18T05:50:44;101095.97;;;11.21;100.00
15634;BME280;14654;48.898;8.308;2023-02-18T05:53:09;101081.31;;;11.23;100.00
15634;BME280;14654;48.898;8.308;2023-02-18T05:55:34;101083.91;;;11.23;100.00
15634;BME280;14654;48.898;8.308;2023-02-18T05:58:04;101090.81;;;11.24;100.00
15634;BME280;14654;48.898;8.308;2023-02-18T06:00:30;101095.97;;;11.23;100.00
15634;BME280;14654;48.898;8.308;2023-02-18T06:02:56;101097.69;;;11.24;100.00
15634;BME280;14654;48.898;8.308;2023-02-18T06:05:22;101099.44;;;11.25;100.00
15634;BME280;14654;48.898;8.308;2023-02-18T06:07:47;101094.25;;;11.25;100.00
15634;BME280;14654;48.898;8.308;2023-02-18T06:10:12;101087.34;;;11.19;100.00
15634;BME280;14654;48.898;8.308;2023-02-18T06:12:38;101094.25;;;11.19;100.00
15634;BME280;14654;48.898;8.308;2023-02-18T06:15:03;101089.91;;;11.16;100.00
15634;BME280;14654;48.898;8.308;2023-02-18T06:17:29;101090.78;;;11.18;100.00
15634;BME280;14654;48.898;8.308;2023-02-18T06:19:54;101089.06;;;11.17;100.00
15634;BME280;14654;48.898;8.308;2023-02-18T06:22:19;101099.44;;;11.20;100.00
15634;BME280;14654;48.898;8.308;2023-02-18T06:24:46;101087.34;;;11.19;100.00
15634;BME280;14654;48.898;8.308;2023-02-18T06:27:11;101095.97;;;11.18;100.00
15634;BME280;14654;48.898;8.308;2023-02-18T06:29:36;101086.47;;;11.19;100.00
15634;BME280;14654;48.898;8.308;2023-02-18T06:32:02;101090.81;;;11.24;100.00
15634;BME280;14654;48.898;8.308;2023-02-18T06:34:27;101090.81;;;11.24;100.00
15634;BME280;14654;48.898;8.308;2023-02-18T06:36:53;101084.75;;;11.24;100.00
15634;BME280;14654;48.898;8.308;2023-02-18T06:39:18;101085.63;;;11.26;100.00
15634;BME280;14654;48.898;8.308;2023-02-18T06:41:43;101084.75;;;11.32;100.00
15634;BME280;14654;48.898;8.308;2023-02-18T06:44:09;101086.50;;;11.31;100.00
15634;BME280;14654;48.898;8.308;2023-02-18T06:46:35;101089.09;;;11.34;100.00
15634;BME280;14654;48.898;8.308;2023-02-18T06:49:01;101095.13;;;11.38;100.00
15634;BME280;14654;48.898;8.308;2023-02-18T06:51:26;101095.97;;;11.38;100.00
15634;BME280;14654;48.898;8.308;2023-02-18T06:53:51;101096.84;;;11.40;100.00
15634;BME280;14654;48.898;8.308;2023-02-18T06:56:17;101103.75;;;11.43;100.00
15634;BME280;14654;48.898;8.308;2023-02-18T06:58:42;101104.66;;;11.47;100.00
15634;BME280;14654;48.898;8.308;2023-02-18T07:01:07;101101.19;;;11.49;100.00
15634;BME280;14654;48.898;8.308;2023-02-18T07:03:33;101088.22;;;11.52;100.00
15634;BME280;14654;48.898;8.308;2023-02-18T07:05:58;101090.81;;;11.57;100.00
15634;BME280;14654;48.898;8.308;2023-02-18T07:08:24;101088.22;;;11.62;100.00
15634;BME280;14654;48.898;8.308;2023-02-18T07:10:49;101086.50;;;11.67;100.00
15634;BME280;14654;48.898;8.308;2023-02-18T07:13:14;101080.44;;;11.72;100.00
15634;BME280;14654;48.898;8.308;2023-02-18T07:15:40;101073.50;;;11.76;100.00
15634;BME280;14654;48.898;8.308;2023-02-18T07:18:05;101074.38;;;11.80;100.00
15634;BME280;14654;48.898;8.308;2023-02-18T07:20:31;101065.72;;;11.85;100.00
15634;BME280;14654;48.898;8.308;2023-02-18T07:22:56;101071.75;;;11.90;100.00
15634;BME280;14654;48.898;8.308;2023-02-18T07:25:22;101070.03;;;11.93;100.00
15634;BME280;14654;48.898;8.308;2023-02-18T07:27:47;101069.19;;;11.98;100.00
15634;BME280;14654;48.898;8.308;2023-02-18T07:30:13;101070.06;;;12.02;100.00
15634;BME280;14654;48.898;8.308;2023-02-18T07:32:39;101070.91;;;12.06;100.00
15634;BME280;14654;48.898;8.308;2023-02-18T07:35:04;101073.47;;;12.10;100.00
15634;BME280;14654;48.898;8.308;2023-02-18T07:37:30;101062.22;;;12.14;100.00
15634;BME280;14654;48.898;8.308;2023-02-18T07:39:56;101059.63;;;12.19;100.00
15634;BME280;14654;48.898;8.308;2023-02-18T07:42:21;101063.91;;;12.25;100.00
15634;BME280;14654;48.898;8.308;2023-02-18T07:44:46;101059.59;;;12.27;100.00
15634;BME280;14654;48.898;8.308;2023-02-18T07:47:14;101068.25;;;12.29;100.00
15634;BME280;14654;48.898;8.308;2023-02-18T07:49:41;101068.22;;;12.30;100.00
15634;BME280;14654;48.898;8.308;2023-02-18T07:52:07;101068.22;;;12.30;100.00
15634;BME280;14654;48.898;8.308;2023-02-18T07:54:33;101067.34;;;12.33;100.00
15634;BME280;14654;48.898;8.308;2023-02-18T07:56:59;101060.44;;;12.33;100.00
15634;BME280;14654;48.898;8.308;2023-02-18T07:59:24;101060.41;;;12.38;100.00
15634;BME280;14654;48.898;8.308;2023-02-18T08:01:49;101060.41;;;12.41;100.00
15634;BME280;14654;48.898;8.308;2023-02-18T08:04:15;101061.25;;;12.43;100.00
15634;BME280;14654;48.898;8.308;2023-02-18T08:06:43;101062.97;;;12.49;100.00
15634;BME280;14654;48.898;8.308;2023-02-18T08:09:10;101066.41;;;12.53;100.00
15634;BME280;14654;48.898;8.308;2023-02-18T08:11:35;101068.97;;;12.57;100.00
15634;BME280;14654;48.898;8.308;2023-02-18T08:14:01;101063.78;;;12.57;100.00
15634;BME280;14654;48.898;8.308;2023-02-18T08:16:26;101063.78;;;12.60;100.00
15634;BME280;14654;48.898;8.308;2023-02-18T08:18:52;101070.66;;;12.66;100.00
15634;BME280;14654;48.898;8.308;2023-02-18T08:21:20;101064.59;;;12.69;100.00
15634;BME280;14654;48.898;8.308;2023-02-18T08:23:45;101046.34;;;12.81;100.00
15634;BME280;14654;48.898;8.308;2023-02-18T08:26:11;101049.75;;;12.91;100.00
15634;BME280;14654;48.898;8.308;2023-02-18T08:28:37;101040.16;;;12.99;100.00
15634;BME280;14654;48.898;8.308;2023-02-18T08:31:02;101041.00;;;13.03;100.00
15634;BME280;14654;48.898;8.308;2023-02-18T08:33:28;101060.03;;;13.05;100.00
15634;BME280;14654;48.898;8.308;2023-02-18T08:35:54;101053.09;;;13.07;100.00
15634;BME280;14654;48.898;8.308;2023-02-18T08:38:20;101053.94;;;13.10;100.00
15634;BME280;14654;48.898;8.308;2023-02-18T08:40:45;101049.63;;;13.11;100.00
15634;BME280;14654;48.898;8.308;2023-02-18T08:43:11;101045.25;;;13.18;100.00
15634;BME280;14654;48.898;8.308;2023-02-18T08:45:37;101042.63;;;13.18;100.00
15634;BME280;14654;48.898;8.308;2023-02-18T08:48:04;101053.03;;;13.21;100.00
15634;BME280;14654;48.898;8.308;2023-02-18T08:50:30;101049.47;;;13.28;100.00
15634;BME280;14654;48.898;8.308;2023-02-18T08:52:56;101046.84;;;13.34;100.00
15634;BME280;14654;48.898;8.308;2023-02-18T08:55:24;101051.16;;;13.37;100.00
15634;BME280;14654;48.898;8.308;2023-02-18T08:57:51;101045.09;;;13.36;100.00
15634;BME280;14654;48.898;8.308;2023-02-18T09:00:16;101040.75;;;13.37;100.00
15634;BME280;14654;48.898;8.308;2023-02-18T09:02:42;101044.25;;;13.31;100.00
15634;BME280;14654;48.898;8.308;2023-02-18T09:05:09;101049.50;;;13.26;100.00
15634;BME280;14654;48.898;8.308;2023-02-18T09:07:35;101055.56;;;13.24;100.00
15634;BME280;14654;48.898;8.308;2023-02-18T09:10:01;101049.56;;;13.22;100.00
15634;BME280;14654;48.898;8.308;2023-02-18T09:12:27;101054.69;;;13.28;100.00
15634;BME280;14654;48.898;8.308;2023-02-18T09:14:52;101039.97;;;13.29;100.00
15634;BME280;14654;48.898;8.308;2023-02-18T09:17:18;101040.84;;;13.24;100.00
15634;BME280;14654;48.898;8.308;2023-02-18T09:19:43;101037.38;;;13.29;100.00
15634;BME280;14654;48.898;8.308;2023-02-18T09:22:08;101030.34;;;13.41;100.00
15634;BME280;14654;48.898;8.308;2023-02-18T09:24:38;101025.03;;;13.54;100.00
15634;BME280;14654;48.898;8.308;2023-02-18T09:27:04;101026.66;;;13.63;100.00
15634;BME280;14654;48.898;8.308;2023-02-18T09:29:31;101025.72;;;13.71;99.81
15634;BME280;14654;48.898;8.308;2023-02-18T09:31:59;101030.88;;;13.78;99.97
15634;BME280;14654;48.898;8.308;2023-02-18T09:34:25;101036.94;;;13.77;99.60
15634;BME280;14654;48.898;8.308;2023-02-18T09:36:50;101036.91;;;13.81;99.73
15634;BME280;14654;48.898;8.308;2023-02-18T09:39:16;101035.94;;;13.90;99.52
15634;BME280;14654;48.898;8.308;2023-02-18T09:41:47;101032.44;;;13.94;98.50
15634;BME280;14654;48.898;8.308;2023-02-18T09:46:53;101030.53;;;14.09;98.17
15634;BME280;14654;48.898;8.308;2023-02-18T09:49:24;101039.19;;;14.11;98.29
15634;BME280;14654;48.898;8.308;2023-02-18T09:51:50;101034.84;;;14.13;98.25
15634;BME280;14654;48.898;8.308;2023-02-18T09:54:17;101021.03;;;14.06;98.06
15634;BME280;14654;48.898;8.308;2023-02-18T09:56:45;101017.59;;;13.99;98.12
15634;BME280;14654;48.898;8.308;2023-02-18T09:59:29;101015.03;;;13.98;98.57
15634;BME280;14654;48.898;8.308;2023-02-18T10:01:56;101009.00;;;13.97;98.06
15634;BME280;14654;48.898;8.308;2023-02-18T10:06:50;101014.91;;;14.07;98.10
15634;BME280;14654;48.898;8.308;2023-02-18T10:11:57;101026.09;;;14.18;97.85
15634;BME280;14654;48.898;8.308;2023-02-18T10:14:23;101034.72;;;14.22;97.90
15634;BME280;14654;48.898;8.308;2023-02-18T10:16:50;101034.66;;;14.28;97.06
15634;BME280;14654;48.898;8.308;2023-02-18T10:21:47;101037.06;;;14.42;96.71
15634;BME280;14654;48.898;8.308;2023-02-18T10:27:07;101057.91;;;14.44;96.80
15634;BME280;14654;48.898;8.308;2023-02-18T10:29:34;101057.97;;;14.38;96.96
15634;BME280;14654;48.898;8.308;2023-02-18T10:32:20;101057.13;;;14.36;96.93
15634;BME280;14654;48.898;8.308;2023-02-18T10:48:24;101039.44;;;14.61;96.07
15634;BME280;14654;48.898;8.308;2023-02-18T10:50:52;101036.81;;;14.61;95.77
15634;BME280;14654;48.898;8.308;2023-02-18T10:55:54;101032.66;;;14.47;95.89
15634;BME280;14654;48.898;8.308;2023-02-18T10:58:35;101033.53;;;14.46;95.76
15634;BME280;14654;48.898;8.308;2023-02-18T11:01:06;101025.84;;;14.37;96.10
15634;BME280;14654;48.898;8.308;2023-02-18T11:03:40;101023.19;;;14.42;96.43
15634;BME280;14654;48.898;8.308;2023-02-18T11:06:33;101032.56;;;14.54;95.39
15634;BME280;14654;48.898;8.308;2023-02-18T11:09:02;101024.59;;;14.64;95.56
15634;BME280;14654;48.898;8.308;2023-02-18T11:11:33;101024.41;;;14.80;95.14
15634;BME280;14654;48.898;8.308;2023-02-18T11:14:02;101019.75;;;15.04;94.77
15634;BME280;14654;48.898;8.308;2023-02-18T11:16:40;101013.31;;;15.23;93.51
15634;BME280;14654;48.898;8.308;2023-02-18T11:19:39;101014.94;;;15.31;93.72
15634;BME280;14654;48.898;8.308;2023-02-18T11:22:28;101013.19;;;15.33;93.17
15634;BME280;14654;48.898;8.308;2023-02-18T11:25:02;101012.88;;;15.50;92.70
15634;BME280;14654;48.898;8.308;2023-02-18T11:27:39;101009.06;;;15.68;91.52
15634;BME280;14654;48.898;8.308;2023-02-18T11:30:19;100994.84;;;15.86;89.70
15634;BME280;14654;48.898;8.308;2023-02-18T11:32:48;100988.69;;;15.89;90.16
15634;BME280;14654;48.898;8.308;2023-02-18T11:35:23;100991.31;;;15.89;89.30
15634;BME280;14654;48.898;8.308;2023-02-18T11:37:50;100994.47;;;16.05;89.06
15634;BME280;14654;48.898;8.308;2023-02-18T11:40:26;101010.63;;;16.24;88.23
15634;BME280;14654;48.898;8.308;2023-02-18T11:43:13;100995.56;;;16.35;87.44
15634;BME280;14654;48.898;8.308;2023-02-18T11:45:40;100984.19;;;16.39;87.52
15634;BME280;14654;48.898;8.308;2023-02-18T11:48:17;101009.69;;;16.26;87.16
15634;BME280;14654;48.898;8.308;2023-02-18T11:50:44;101002.06;;;16.17;87.82
15634;BME280;14654;48.898;8.308;2023-02-18T11:53:38;101008.06;;;16.21;88.09
15634;BME280;14654;48.898;8.308;2023-02-18T11:56:14;101008.75;;;16.30;87.38
15634;BME280;14654;48.898;8.308;2023-02-18T11:58:43;101002.59;;;16.33;87.16
15634;BME280;14654;48.898;8.308;2023-02-18T12:01:42;100993.75;;;16.40;86.76
15634;BME280;14654;48.898;8.308;2023-02-18T12:04:17;101000.53;;;16.48;86.42
15634;BME280;14654;48.898;8.308;2023-02-18T12:07:16;100998.63;;;16.56;86.36
15634;BME280;14654;48.898;8.308;2023-02-18T12:09:54;100994.31;;;16.53;86.25
15634;BME280;14654;48.898;8.308;2023-02-18T12:12:30;100994.41;;;16.49;86.75
15634;BME280;14654;48.898;8.308;2023-02-18T12:14:58;100998.84;;;16.45;87.21
15634;BME280;14654;48.898;8.308;2023-02-18T12:20:40;100985.19;;;16.32;86.87
15634;BME280;14654;48.898;8.308;2023-02-18T12:33:51;100976.72;;;15.77;86.55
15634;BME280;14654;48.898;8.308;2023-02-18T12:39:21;100967.16;;;15.77;86.39
15634;BME280;14654;48.898;8.308;2023-02-18T12:44:41;100961.41;;;16.05;86.01
15634;BME280;14654;48.898;8.308;2023-02-18T12:58:16;100965.50;;;16.56;83.78
15634;BME280;14654;48.898;8.308;2023-02-18T13:03:50;100964.53;;;16.60;83.63
15634;BME280;14654;48.898;8.308;2023-02-18T13:09:40;100967.53;;;16.43;83.71
15634;BME280;14654;48.898;8.308;2023-02-18T13:12:40;100970.94;;;16.47;84.10
15634;BME280;14654;48.898;8.308;2023-02-18T13:17:55;100969.53;;;16.32;84.42
15634;BME280;14654;48.898;8.308;2023-02-18T13:22:53;100962.75;;;16.23;84.85
15634;BME280;14654;48.898;8.308;2023-02-18T13:25:19;100962.84;;;16.19;85.35
15634;BME280;14654;48.898;8.308;2023-02-18T13:31:04;100972.84;;;16.39;85.04
15634;BME280;14654;48.898;8.308;2023-02-18T13:33:52;100973.56;;;16.45;83.49
15634;BME280;14654;48.898;8.308;2023-02-18T13:36:49;100976.13;;;16.49;83.56
15634;BME280;14654;48.898;8.308;2023-02-18T13:39:18;100966.53;;;16.49;83.55
15634;BME280;14654;48.898;8.308;2023-02-18T13:41:47;100959.59;;;16.48;82.36
15634;BME280;14654;48.898;8.308;2023-02-18T13:46:53;100958.47;;;16.19;83.08
15634;BME280;14654;48.898;8.308;2023-02-18T13:49:30;100956.84;;;16.15;83.00
15634;BME280;14654;48.898;8.308;2023-02-18T13:51:57;100950.78;;;16.13;83.08
15634;BME280;14654;48.898;8.308;2023-02-18T13:54:25;100945.41;;;16.19;82.86
15634;BME280;14654;48.898;8.308;2023-02-18T14:10:05;100922.72;;;16.60;79.96
15634;BME280;14654;48.898;8.308;2023-02-18T14:12:40;100937.41;;;16.65;79.36
15634;BME280;14654;48.898;8.308;2023-02-18T14:20:28;100929.16;;;16.45;78.03
15634;BME280;14654;48.898;8.308;2023-02-18T14:22:56;100925.66;;;16.48;77.90
15634;BME280;14654;48.898;8.308;2023-02-18T14:25:32;100921.38;;;16.44;77.69
15634;BME280;14654;48.898;8.308;2023-02-18T14:28:02;100929.16;;;16.45;78.01
15634;BME280;14654;48.898;8.308;2023-02-18T14:30:34;100922.38;;;16.38;77.63
15634;BME280;14654;48.898;8.308;2023-02-18T14:33:02;100926.16;;;16.25;77.90
15634;BME280;14654;48.898;8.308;2023-02-18T14:44:07;100931.66;;;15.68;79.15
15634;BME280;14654;48.898;8.308;2023-02-18T14:49:18;100930.19;;;15.55;80.11
15634;BME280;14654;48.898;8.308;2023-02-18T14:51:47;100938.16;;;15.47;80.37
15634;BME280;14654;48.898;8.308;2023-02-18T14:54:18;100924.34;;;15.42;80.49
15634;BME280;14654;48.898;8.308;2023-02-18T14:56:57;100927.13;;;15.31;81.27
15634;BME280;14654;48.898;8.308;2023-02-18T14:59:42;100937.75;;;15.20;81.56
15634;BME280;14654;48.898;8.308;2023-02-18T15:02:23;100934.44;;;15.12;81.63
15634;BME280;14654;48.898;8.308;2023-02-18T15:04:52;100939.72;;;15.07;81.96
15634;BME280;14654;48.898;8.308;2023-02-18T15:07:19;100934.47;;;15.11;82.44
15634;BME280;14654;48.898;8.308;2023-02-18T15:09:51;100943.09;;;15.14;82.23
15634;BME280;14654;48.898;8.308;2023-02-18T15:12:19;100935.28;;;15.14;82.09
15634;BME280;14654;48.898;8.308;2023-02-18T15:14:47;100937.84;;;15.16;81.59
15634;BME280;14654;48.898;8.308;2023-02-18T15:17:17;100935.19;;;15.19;81.72
15634;BME280;14654;48.898;8.308;2023-02-18T15:19:51;100937.75;;;15.20;81.04
15634;BME280;14654;48.898;8.308;2023-02-18T15:22:22;100945.56;;;15.22;80.78
15634;BME280;14654;48.898;8.308;2023-02-18T15:24:49;100932.53;;;15.22;81.01
15634;BME280;14654;48.898;8.308;2023-02-18T15:27:18;100939.47;;;15.21;81.01
15634;BME280;14654;48.898;8.308;2023-02-18T15:29:53;100942.91;;;15.23;80.81